Sidney Richland Municipal Airport
KSDY : now visible

Airfield :











YOU CAN JOIN US ON...

 
LOGIN :

Register | Disclaimer

   EN    FR    IT 

 









Legend :    VFR   Marginal VFR   IFR   Intensive IFR   Very Intensive IFR
Visi :
Ceiling :
>= 8 km
>= 3000ft
5 to 8 km
1000 to 3000 ft
1500m to 5 km
500 to 1000 ft
800 to 1500m
200 to 500 ft
< 800m
< 200 ft
Symbols :   Thunderstorms  Fog  Heavy snow  Heavy precipitations  Wind > 20 kt






- Airport Elevation : 1985 ft


KSDY - Sidney Richland Municipal

CURRENT METAR :
  • 120456Z AUTO 04007KT 9SM -SN OVC027 M11/M13 A2995 RMK AO2 SLP541 P0000 T11061128 FZRANO

EXPIRED METARs :
  • 120356Z AUTO 03007KT 9SM -SN OVC027 M11/M13 A2995 RMK AO2 SLP540 P0000 T11061128 FZRANO
  • 120340Z AUTO 04006KT 8SM -SN OVC029 M11/M13 A2995 RMK AO2 P0000 FZRANO
  • 120311Z AUTO 05008KT 3SM -SN BR SCT019 OVC031 M11/M13 A2995 RMK AO2 P0000 FZRANO
  • 120307Z AUTO 05007KT 2SM -SN BR SCT019 BKN028 OVC033 M11/M13 A2995 RMK AO2 P0000 FZRANO
  • 120256Z AUTO 06008KT 2 1/2SM -SN BR SCT019 OVC029 M11/M13 A2995 RMK AO2 SLP541 P0000 60000 T11061128 58000 FZRANO

TAF KSDY
Valid from the 12 at 00:00 until the 13 at 00:00 UTC


112320Z 1200/1224 VRB06KT 5SM BR VCSH OVC012
TEMPO 1201/1203 2SM -SN OVC012
FM120300 VRB06KT 2SM -SN OVC007
FM120400 VRB05KT 2SM BR OVC011
TEMPO 1204/1205 1SM -SN OVC006
FM120500 VRB06KT 6SM BR OVC015
FM121800 VRB06KT P6SM OVC040



MET'MAP, your aeronautical weather chart ! - Copyright ORBIFLY December 2007 - Disclaimer

ORBIFLY MET'MAP TEAM :

Programming & Development : Alexandra Zaïnal
Concept & original design : Baudouin d'Aumeries
Assistance for programming : Marc-Olivier Méhu
Technical & hardware support : Manuel Goepfert

Contact : metmap@orbifly.com




SOURCES & CREDITS :

   NOAA       Earth
Advisory